Avoca, Arkansas
Current Conditions -  °F | °C
As of 9:57 PM on Monday 22 Dec 2014 (Local Time) from KROG Reporting Station
Clear Clear  
Wind Chill:   Ceiling: Unl
Heat Index:   Visibility: 7mi
Dew Point:   Wind: 5mph
Humidity: 100%   Direction: 250°WSW
Pressure: 29.64"   Gusts: NA
Location:  36.4°N, 94.07°W
Report Text: KROG 230357Z AUTO 25004KT 7SM CLR 06/06 A2964 RMK AO2 SLP038 T00610061
Loading
Personal Weather Stations






























Interactive Weather Map New forecast layout! Learn more

10-Day Weather Forecast

Advertisements
Track Severe Weather on mobile